sensor_id;sensor_type;location;lat;lon;timestamp;P1;durP1;ratioP1;P2;durP2;ratioP2
76733;SDS011;65660;53.288;14.666;2022-12-07T00:02:43;20.57;;;12.17;;
76733;SDS011;65660;53.288;14.666;2022-12-07T00:07:43;16.13;;;10.67;;
76733;SDS011;65660;53.288;14.666;2022-12-07T00:12:44;14.23;;;10.10;;
76733;SDS011;65660;53.288;14.666;2022-12-07T00:17:44;20.77;;;11.87;;
76733;SDS011;65660;53.288;14.666;2022-12-07T00:22:45;20.80;;;11.80;;
76733;SDS011;65660;53.288;14.666;2022-12-07T00:27:45;21.00;;;11.93;;
76733;SDS011;65660;53.288;14.666;2022-12-07T00:32:46;14.90;;;10.53;;
76733;SDS011;65660;53.288;14.666;2022-12-07T00:37:46;18.10;;;10.50;;
76733;SDS011;65660;53.288;14.666;2022-12-07T00:42:46;15.20;;;10.17;;
76733;SDS011;65660;53.288;14.666;2022-12-07T00:47:47;15.07;;;10.10;;
76733;SDS011;65660;53.288;14.666;2022-12-07T00:52:47;18.40;;;11.10;;
76733;SDS011;65660;53.288;14.666;2022-12-07T00:57:48;17.43;;;11.33;;
76733;SDS011;65660;53.288;14.666;2022-12-07T01:02:48;18.47;;;10.93;;
76733;SDS011;65660;53.288;14.666;2022-12-07T01:07:49;19.27;;;11.50;;
76733;SDS011;65660;53.288;14.666;2022-12-07T01:12:49;17.47;;;11.00;;
76733;SDS011;65660;53.288;14.666;2022-12-07T01:17:50;18.30;;;10.90;;
76733;SDS011;65660;53.288;14.666;2022-12-07T01:22:50;16.90;;;10.97;;
76733;SDS011;65660;53.288;14.666;2022-12-07T01:27:51;12.30;;;9.20;;
76733;SDS011;65660;53.288;14.666;2022-12-07T01:32:51;11.60;;;9.07;;
76733;SDS011;65660;53.288;14.666;2022-12-07T01:37:52;11.40;;;9.10;;
76733;SDS011;65660;53.288;14.666;2022-12-07T01:42:52;11.23;;;9.07;;
76733;SDS011;65660;53.288;14.666;2022-12-07T01:47:53;13.40;;;8.83;;
76733;SDS011;65660;53.288;14.666;2022-12-07T01:52:55;11.03;;;8.73;;
76733;SDS011;65660;53.288;14.666;2022-12-07T01:57:57;11.93;;;9.10;;
76733;SDS011;65660;53.288;14.666;2022-12-07T02:03:18;10.40;;;8.47;;
76733;SDS011;65660;53.288;14.666;2022-12-07T02:08:21;13.00;;;9.43;;
76733;SDS011;65660;53.288;14.666;2022-12-07T02:13:22;9.30;;;8.17;;
76733;SDS011;65660;53.288;14.666;2022-12-07T02:34:12;9.13;;;8.13;;
76733;SDS011;65660;53.288;14.666;2022-12-07T02:39:22;9.87;;;8.37;;
76733;SDS011;65660;53.288;14.666;2022-12-07T02:44:37;10.37;;;8.77;;
76733;SDS011;65660;53.288;14.666;2022-12-07T02:49:38;13.70;;;9.43;;
76733;SDS011;65660;53.288;14.666;2022-12-07T02:54:39;12.90;;;9.60;;
76733;SDS011;65660;53.288;14.666;2022-12-07T02:59:57;10.27;;;8.63;;
76733;SDS011;65660;53.288;14.666;2022-12-07T03:05:12;12.13;;;8.83;;
76733;SDS011;65660;53.288;14.666;2022-12-07T03:10:24;9.03;;;8.13;;
76733;SDS011;65660;53.288;14.666;2022-12-07T03:16:16;8.97;;;7.70;;
76733;SDS011;65660;53.288;14.666;2022-12-07T03:21:06;9.37;;;7.27;;
76733;SDS011;65660;53.288;14.666;2022-12-07T03:26:10;9.70;;;7.97;;
76733;SDS011;65660;53.288;14.666;2022-12-07T03:31:14;8.70;;;7.50;;
76733;SDS011;65660;53.288;14.666;2022-12-07T03:36:25;9.67;;;7.83;;
76733;SDS011;65660;53.288;14.666;2022-12-07T03:41:33;9.33;;;7.87;;
76733;SDS011;65660;53.288;14.666;2022-12-07T03:51:48;14.07;;;9.50;;
76733;SDS011;65660;53.288;14.666;2022-12-07T03:56:51;12.30;;;9.40;;
76733;SDS011;65660;53.288;14.666;2022-12-07T04:01:54;12.43;;;9.63;;
76733;SDS011;65660;53.288;14.666;2022-12-07T04:06:56;14.20;;;11.07;;
76733;SDS011;65660;53.288;14.666;2022-12-07T04:11:56;10.90;;;9.50;;
76733;SDS011;65660;53.288;14.666;2022-12-07T04:16:57;13.57;;;9.77;;
76733;SDS011;65660;53.288;14.666;2022-12-07T04:21:59;13.57;;;10.40;;
76733;SDS011;65660;53.288;14.666;2022-12-07T04:27:00;16.43;;;10.97;;
76733;SDS011;65660;53.288;14.666;2022-12-07T04:32:01;15.73;;;11.10;;
76733;SDS011;65660;53.288;14.666;2022-12-07T04:37:01;15.17;;;10.80;;
76733;SDS011;65660;53.288;14.666;2022-12-07T04:42:02;16.93;;;11.20;;
76733;SDS011;65660;53.288;14.666;2022-12-07T04:47:03;14.63;;;10.53;;
76733;SDS011;65660;53.288;14.666;2022-12-07T04:52:03;15.80;;;11.23;;
76733;SDS011;65660;53.288;14.666;2022-12-07T04:57:04;16.40;;;11.50;;
76733;SDS011;65660;53.288;14.666;2022-12-07T05:02:04;18.93;;;12.60;;
76733;SDS011;65660;53.288;14.666;2022-12-07T05:07:05;19.93;;;12.00;;
76733;SDS011;65660;53.288;14.666;2022-12-07T05:12:05;20.60;;;12.43;;
76733;SDS011;65660;53.288;14.666;2022-12-07T05:17:06;19.50;;;12.90;;
76733;SDS011;65660;53.288;14.666;2022-12-07T05:22:06;19.73;;;13.00;;
76733;SDS011;65660;53.288;14.666;2022-12-07T05:27:06;21.30;;;14.77;;
76733;SDS011;65660;53.288;14.666;2022-12-07T05:32:07;19.87;;;12.60;;
76733;SDS011;65660;53.288;14.666;2022-12-07T05:37:07;23.33;;;14.70;;
76733;SDS011;65660;53.288;14.666;2022-12-07T05:42:09;20.97;;;13.23;;
76733;SDS011;65660;53.288;14.666;2022-12-07T05:47:11;21.57;;;12.40;;
76733;SDS011;65660;53.288;14.666;2022-12-07T05:52:12;18.93;;;12.53;;
76733;SDS011;65660;53.288;14.666;2022-12-07T05:57:12;20.30;;;12.97;;
76733;SDS011;65660;53.288;14.666;2022-12-07T06:02:14;20.03;;;13.03;;
76733;SDS011;65660;53.288;14.666;2022-12-07T06:07:15;20.97;;;12.90;;
76733;SDS011;65660;53.288;14.666;2022-12-07T06:12:17;22.13;;;12.37;;
76733;SDS011;65660;53.288;14.666;2022-12-07T06:17:17;20.37;;;13.37;;
76733;SDS011;65660;53.288;14.666;2022-12-07T06:22:17;23.83;;;13.90;;
76733;SDS011;65660;53.288;14.666;2022-12-07T06:27:18;21.07;;;13.03;;
76733;SDS011;65660;53.288;14.666;2022-12-07T06:32:18;21.40;;;12.70;;
76733;SDS011;65660;53.288;14.666;2022-12-07T06:37:19;21.37;;;13.10;;
76733;SDS011;65660;53.288;14.666;2022-12-07T06:42:19;20.97;;;12.93;;
76733;SDS011;65660;53.288;14.666;2022-12-07T06:47:20;21.63;;;13.43;;
76733;SDS011;65660;53.288;14.666;2022-12-07T06:52:20;23.80;;;15.10;;
76733;SDS011;65660;53.288;14.666;2022-12-07T06:57:20;20.60;;;13.17;;
76733;SDS011;65660;53.288;14.666;2022-12-07T07:02:21;23.90;;;12.77;;
76733;SDS011;65660;53.288;14.666;2022-12-07T07:07:21;22.00;;;12.90;;
76733;SDS011;65660;53.288;14.666;2022-12-07T07:12:22;26.23;;;15.43;;
76733;SDS011;65660;53.288;14.666;2022-12-07T07:17:22;23.20;;;14.10;;
76733;SDS011;65660;53.288;14.666;2022-12-07T07:22:23;34.07;;;16.47;;
76733;SDS011;65660;53.288;14.666;2022-12-07T07:27:23;28.73;;;15.27;;
76733;SDS011;65660;53.288;14.666;2022-12-07T07:32:24;28.77;;;15.23;;
76733;SDS011;65660;53.288;14.666;2022-12-07T07:37:24;31.67;;;15.83;;
76733;SDS011;65660;53.288;14.666;2022-12-07T07:42:25;27.70;;;14.57;;
76733;SDS011;65660;53.288;14.666;2022-12-07T07:47:25;33.67;;;16.00;;
76733;SDS011;65660;53.288;14.666;2022-12-07T07:52:26;29.10;;;15.53;;
76733;SDS011;65660;53.288;14.666;2022-12-07T07:57:26;31.33;;;17.87;;
76733;SDS011;65660;53.288;14.666;2022-12-07T08:02:28;27.87;;;14.67;;
76733;SDS011;65660;53.288;14.666;2022-12-07T08:07:28;25.03;;;14.77;;
76733;SDS011;65660;53.288;14.666;2022-12-07T08:12:29;27.07;;;13.53;;
76733;SDS011;65660;53.288;14.666;2022-12-07T08:17:29;21.43;;;13.17;;
76733;SDS011;65660;53.288;14.666;2022-12-07T08:22:30;21.27;;;12.73;;
76733;SDS011;65660;53.288;14.666;2022-12-07T08:27:30;19.83;;;12.10;;
76733;SDS011;65660;53.288;14.666;2022-12-07T08:32:31;20.13;;;11.97;;
76733;SDS011;65660;53.288;14.666;2022-12-07T08:37:31;24.20;;;12.57;;
76733;SDS011;65660;53.288;14.666;2022-12-07T08:42:32;17.07;;;11.47;;
76733;SDS011;65660;53.288;14.666;2022-12-07T08:47:33;16.43;;;11.67;;
76733;SDS011;65660;53.288;14.666;2022-12-07T08:52:35;21.53;;;12.43;;
76733;SDS011;65660;53.288;14.666;2022-12-07T08:57:36;18.07;;;11.97;;
76733;SDS011;65660;53.288;14.666;2022-12-07T09:02:37;20.23;;;12.17;;
76733;SDS011;65660;53.288;14.666;2022-12-07T09:07:37;19.13;;;11.67;;
76733;SDS011;65660;53.288;14.666;2022-12-07T09:12:38;22.13;;;12.93;;
76733;SDS011;65660;53.288;14.666;2022-12-07T09:17:39;20.30;;;12.40;;
76733;SDS011;65660;53.288;14.666;2022-12-07T09:22:39;21.20;;;13.60;;
76733;SDS011;65660;53.288;14.666;2022-12-07T09:27:41;23.83;;;13.10;;
76733;SDS011;65660;53.288;14.666;2022-12-07T09:32:41;25.47;;;14.87;;
76733;SDS011;65660;53.288;14.666;2022-12-07T09:37:42;25.57;;;15.37;;
76733;SDS011;65660;53.288;14.666;2022-12-07T09:42:43;22.40;;;14.57;;
76733;SDS011;65660;53.288;14.666;2022-12-07T09:47:47;19.20;;;12.20;;
76733;SDS011;65660;53.288;14.666;2022-12-07T09:52:47;21.43;;;12.60;;
76733;SDS011;65660;53.288;14.666;2022-12-07T09:57:49;20.73;;;11.70;;
76733;SDS011;65660;53.288;14.666;2022-12-07T10:02:52;17.93;;;11.17;;
76733;SDS011;65660;53.288;14.666;2022-12-07T10:07:54;19.70;;;12.00;;
76733;SDS011;65660;53.288;14.666;2022-12-07T10:23:29;17.10;;;12.50;;
76733;SDS011;65660;53.288;14.666;2022-12-07T10:28:33;18.10;;;10.93;;
76733;SDS011;65660;53.288;14.666;2022-12-07T10:38:39;17.60;;;11.67;;
76733;SDS011;65660;53.288;14.666;2022-12-07T10:44:03;21.63;;;12.67;;
76733;SDS011;65660;53.288;14.666;2022-12-07T10:54:33;19.80;;;14.00;;
76733;SDS011;65660;53.288;14.666;2022-12-07T11:04:54;18.83;;;14.00;;
76733;SDS011;65660;53.288;14.666;2022-12-07T11:10:02;16.43;;;12.23;;
76733;SDS011;65660;53.288;14.666;2022-12-07T11:21:03;18.87;;;12.77;;
76733;SDS011;65660;53.288;14.666;2022-12-07T11:27:15;20.27;;;13.13;;
76733;SDS011;65660;53.288;14.666;2022-12-07T11:37:13;18.90;;;12.77;;
76733;SDS011;65660;53.288;14.666;2022-12-07T11:52:48;19.53;;;12.60;;
76733;SDS011;65660;53.288;14.666;2022-12-07T11:58:00;19.93;;;12.53;;
76733;SDS011;65660;53.288;14.666;2022-12-07T12:03:08;15.70;;;11.20;;
76733;SDS011;65660;53.288;14.666;2022-12-07T12:08:21;14.63;;;11.87;;
76733;SDS011;65660;53.288;14.666;2022-12-07T12:24:18;15.10;;;11.10;;
76733;SDS011;65660;53.288;14.666;2022-12-07T12:29:24;14.23;;;10.50;;
76733;SDS011;65660;53.288;14.666;2022-12-07T12:34:57;11.50;;;9.53;;
76733;SDS011;65660;53.288;14.666;2022-12-07T12:45:22;10.37;;;9.37;;
76733;SDS011;65660;53.288;14.666;2022-12-07T12:50:31;9.67;;;8.67;;
76733;SDS011;65660;53.288;14.666;2022-12-07T13:00:42;9.07;;;8.27;;
76733;SDS011;65660;53.288;14.666;2022-12-07T13:05:42;9.33;;;8.53;;
76733;SDS011;65660;53.288;14.666;2022-12-07T13:10:44;8.37;;;7.63;;
76733;SDS011;65660;53.288;14.666;2022-12-07T13:15:46;7.50;;;6.80;;
76733;SDS011;65660;53.288;14.666;2022-12-07T13:21:01;7.53;;;6.83;;
76733;SDS011;65660;53.288;14.666;2022-12-07T13:31:13;6.77;;;6.23;;
76733;SDS011;65660;53.288;14.666;2022-12-07T13:36:23;6.80;;;6.20;;
76733;SDS011;65660;53.288;14.666;2022-12-07T13:41:26;7.40;;;6.80;;
76733;SDS011;65660;53.288;14.666;2022-12-07T13:57:27;7.60;;;6.90;;
76733;SDS011;65660;53.288;14.666;2022-12-07T14:02:30;7.97;;;6.90;;
76733;SDS011;65660;53.288;14.666;2022-12-07T14:07:33;9.43;;;6.47;;
76733;SDS011;65660;53.288;14.666;2022-12-07T14:12:36;7.40;;;6.70;;
76733;SDS011;65660;53.288;14.666;2022-12-07T14:17:36;7.90;;;7.07;;
76733;SDS011;65660;53.288;14.666;2022-12-07T14:22:54;7.70;;;7.00;;
76733;SDS011;65660;53.288;14.666;2022-12-07T14:27:59;7.80;;;7.10;;
76733;SDS011;65660;53.288;14.666;2022-12-07T14:33:04;8.50;;;7.70;;
76733;SDS011;65660;53.288;14.666;2022-12-07T14:38:05;7.07;;;6.37;;
76733;SDS011;65660;53.288;14.666;2022-12-07T14:43:08;9.87;;;6.90;;
76733;SDS011;65660;53.288;14.666;2022-12-07T14:48:13;10.23;;;6.70;;
76733;SDS011;65660;53.288;14.666;2022-12-07T14:53:16;6.70;;;6.20;;
76733;SDS011;65660;53.288;14.666;2022-12-07T14:58:17;8.33;;;6.60;;
76733;SDS011;65660;53.288;14.666;2022-12-07T15:03:18;8.97;;;8.10;;
76733;SDS011;65660;53.288;14.666;2022-12-07T15:08:18;8.93;;;8.03;;
76733;SDS011;65660;53.288;14.666;2022-12-07T15:13:19;9.53;;;7.17;;
76733;SDS011;65660;53.288;14.666;2022-12-07T15:18:20;8.53;;;6.90;;
76733;SDS011;65660;53.288;14.666;2022-12-07T15:23:22;8.07;;;6.67;;
76733;SDS011;65660;53.288;14.666;2022-12-07T15:28:22;9.87;;;7.03;;
76733;SDS011;65660;53.288;14.666;2022-12-07T15:33:23;10.43;;;7.60;;
76733;SDS011;65660;53.288;14.666;2022-12-07T15:38:23;8.90;;;7.43;;
76733;SDS011;65660;53.288;14.666;2022-12-07T15:43:24;8.83;;;7.93;;
76733;SDS011;65660;53.288;14.666;2022-12-07T15:48:25;11.60;;;8.00;;
76733;SDS011;65660;53.288;14.666;2022-12-07T15:53:25;12.33;;;8.20;;
76733;SDS011;65660;53.288;14.666;2022-12-07T15:58:26;9.40;;;8.60;;
76733;SDS011;65660;53.288;14.666;2022-12-07T16:03:26;8.70;;;6.70;;
76733;SDS011;65660;53.288;14.666;2022-12-07T16:08:27;10.77;;;6.80;;
76733;SDS011;65660;53.288;14.666;2022-12-07T16:13:28;10.83;;;6.57;;
76733;SDS011;65660;53.288;14.666;2022-12-07T16:18:28;7.53;;;6.10;;
76733;SDS011;65660;53.288;14.666;2022-12-07T16:23:28;6.60;;;5.70;;
76733;SDS011;65660;53.288;14.666;2022-12-07T16:28:29;8.17;;;7.47;;
76733;SDS011;65660;53.288;14.666;2022-12-07T16:33:30;6.20;;;5.63;;
76733;SDS011;65660;53.288;14.666;2022-12-07T16:38:30;6.23;;;5.73;;
76733;SDS011;65660;53.288;14.666;2022-12-07T16:43:31;8.10;;;5.43;;
76733;SDS011;65660;53.288;14.666;2022-12-07T16:48:31;6.03;;;5.40;;
76733;SDS011;65660;53.288;14.666;2022-12-07T16:53:36;5.27;;;4.80;;
76733;SDS011;65660;53.288;14.666;2022-12-07T16:58:37;5.67;;;4.73;;
76733;SDS011;65660;53.288;14.666;2022-12-07T17:03:37;5.00;;;4.60;;
76733;SDS011;65660;53.288;14.666;2022-12-07T17:08:38;7.40;;;6.80;;
76733;SDS011;65660;53.288;14.666;2022-12-07T17:13:39;6.77;;;4.80;;
76733;SDS011;65660;53.288;14.666;2022-12-07T17:18:40;4.70;;;4.30;;
76733;SDS011;65660;53.288;14.666;2022-12-07T17:23:40;6.87;;;4.50;;
76733;SDS011;65660;53.288;14.666;2022-12-07T17:28:41;5.13;;;4.63;;
76733;SDS011;65660;53.288;14.666;2022-12-07T17:33:41;8.33;;;6.53;;
76733;SDS011;65660;53.288;14.666;2022-12-07T17:38:42;6.27;;;5.30;;
76733;SDS011;65660;53.288;14.666;2022-12-07T17:43:42;5.40;;;5.00;;
76733;SDS011;65660;53.288;14.666;2022-12-07T17:48:43;4.83;;;4.50;;
76733;SDS011;65660;53.288;14.666;2022-12-07T17:53:43;4.97;;;4.03;;
76733;SDS011;65660;53.288;14.666;2022-12-07T17:58:44;6.43;;;4.83;;
76733;SDS011;65660;53.288;14.666;2022-12-07T18:03:44;5.50;;;5.00;;
76733;SDS011;65660;53.288;14.666;2022-12-07T18:08:45;6.03;;;4.80;;
76733;SDS011;65660;53.288;14.666;2022-12-07T18:13:45;5.13;;;4.73;;
76733;SDS011;65660;53.288;14.666;2022-12-07T18:18:46;4.30;;;4.00;;
76733;SDS011;65660;53.288;14.666;2022-12-07T18:23:48;6.17;;;4.40;;
76733;SDS011;65660;53.288;14.666;2022-12-07T18:28:50;8.87;;;4.53;;
76733;SDS011;65660;53.288;14.666;2022-12-07T18:33:51;5.70;;;4.93;;
76733;SDS011;65660;53.288;14.666;2022-12-07T18:38:51;9.30;;;5.20;;
76733;SDS011;65660;53.288;14.666;2022-12-07T18:43:51;5.30;;;4.80;;
76733;SDS011;65660;53.288;14.666;2022-12-07T18:48:52;5.93;;;5.07;;
76733;SDS011;65660;53.288;14.666;2022-12-07T18:53:56;5.53;;;5.10;;
76733;SDS011;65660;53.288;14.666;2022-12-07T18:58:58;5.63;;;4.90;;
76733;SDS011;65660;53.288;14.666;2022-12-07T19:04:00;6.53;;;5.97;;
76733;SDS011;65660;53.288;14.666;2022-12-07T19:09:00;7.63;;;5.40;;
76733;SDS011;65660;53.288;14.666;2022-12-07T19:14:01;6.03;;;5.37;;
76733;SDS011;65660;53.288;14.666;2022-12-07T19:19:01;5.50;;;4.87;;
76733;SDS011;65660;53.288;14.666;2022-12-07T19:24:03;5.73;;;5.07;;
76733;SDS011;65660;53.288;14.666;2022-12-07T19:29:04;5.80;;;5.27;;
76733;SDS011;65660;53.288;14.666;2022-12-07T19:34:09;5.70;;;5.00;;
76733;SDS011;65660;53.288;14.666;2022-12-07T19:39:10;5.00;;;4.70;;
76733;SDS011;65660;53.288;14.666;2022-12-07T19:44:12;8.03;;;5.73;;
76733;SDS011;65660;53.288;14.666;2022-12-07T19:49:14;6.70;;;6.20;;
76733;SDS011;65660;53.288;14.666;2022-12-07T19:54:17;7.30;;;6.80;;
76733;SDS011;65660;53.288;14.666;2022-12-07T19:59:19;7.63;;;7.03;;
76733;SDS011;65660;53.288;14.666;2022-12-07T20:04:24;5.30;;;4.90;;
76733;SDS011;65660;53.288;14.666;2022-12-07T20:09:26;5.53;;;5.10;;
76733;SDS011;65660;53.288;14.666;2022-12-07T20:14:27;5.43;;;4.70;;
76733;SDS011;65660;53.288;14.666;2022-12-07T20:19:28;6.83;;;5.10;;
76733;SDS011;65660;53.288;14.666;2022-12-07T20:24:29;5.60;;;5.10;;
76733;SDS011;65660;53.288;14.666;2022-12-07T20:29:29;6.30;;;5.70;;
76733;SDS011;65660;53.288;14.666;2022-12-07T20:34:30;5.97;;;5.40;;
76733;SDS011;65660;53.288;14.666;2022-12-07T20:39:31;6.87;;;5.07;;
76733;SDS011;65660;53.288;14.666;2022-12-07T20:44:32;5.90;;;5.40;;
76733;SDS011;65660;53.288;14.666;2022-12-07T20:49:32;5.80;;;5.10;;
76733;SDS011;65660;53.288;14.666;2022-12-07T20:54:33;5.10;;;4.80;;
76733;SDS011;65660;53.288;14.666;2022-12-07T20:59:35;5.00;;;4.70;;
76733;SDS011;65660;53.288;14.666;2022-12-07T21:04:35;5.73;;;5.30;;
76733;SDS011;65660;53.288;14.666;2022-12-07T21:09:36;6.90;;;5.33;;
76733;SDS011;65660;53.288;14.666;2022-12-07T21:14:39;5.30;;;4.90;;
76733;SDS011;65660;53.288;14.666;2022-12-07T21:19:40;5.50;;;5.10;;
76733;SDS011;65660;53.288;14.666;2022-12-07T21:24:41;5.77;;;5.30;;
76733;SDS011;65660;53.288;14.666;2022-12-07T21:29:42;5.73;;;5.20;;
76733;SDS011;65660;53.288;14.666;2022-12-07T21:34:43;4.77;;;4.47;;
76733;SDS011;65660;53.288;14.666;2022-12-07T21:39:43;5.50;;;5.10;;
76733;SDS011;65660;53.288;14.666;2022-12-07T21:44:44;5.60;;;5.13;;
76733;SDS011;65660;53.288;14.666;2022-12-07T21:49:44;5.93;;;5.40;;
76733;SDS011;65660;53.288;14.666;2022-12-07T21:54:46;7.80;;;7.13;;
76733;SDS011;65660;53.288;14.666;2022-12-07T21:59:47;7.10;;;6.40;;
76733;SDS011;65660;53.288;14.666;2022-12-07T22:04:47;7.67;;;5.97;;
76733;SDS011;65660;53.288;14.666;2022-12-07T22:09:48;6.70;;;6.00;;
76733;SDS011;65660;53.288;14.666;2022-12-07T22:14:48;6.50;;;5.90;;
76733;SDS011;65660;53.288;14.666;2022-12-07T22:19:48;7.53;;;5.50;;
76733;SDS011;65660;53.288;14.666;2022-12-07T22:24:49;6.17;;;5.57;;
76733;SDS011;65660;53.288;14.666;2022-12-07T22:29:49;5.93;;;5.43;;
76733;SDS011;65660;53.288;14.666;2022-12-07T22:34:50;7.37;;;5.50;;
76733;SDS011;65660;53.288;14.666;2022-12-07T22:39:50;6.87;;;6.43;;
76733;SDS011;65660;53.288;14.666;2022-12-07T22:44:51;6.07;;;5.63;;
76733;SDS011;65660;53.288;14.666;2022-12-07T22:49:52;5.57;;;5.13;;
76733;SDS011;65660;53.288;14.666;2022-12-07T22:54:56;5.27;;;4.83;;
76733;SDS011;65660;53.288;14.666;2022-12-07T22:59:56;6.10;;;5.10;;
76733;SDS011;65660;53.288;14.666;2022-12-07T23:04:57;5.80;;;5.40;;
76733;SDS011;65660;53.288;14.666;2022-12-07T23:09:57;5.70;;;5.20;;
76733;SDS011;65660;53.288;14.666;2022-12-07T23:14:58;5.60;;;5.10;;
76733;SDS011;65660;53.288;14.666;2022-12-07T23:19:58;7.60;;;6.90;;
76733;SDS011;65660;53.288;14.666;2022-12-07T23:24:59;7.03;;;6.37;;
76733;SDS011;65660;53.288;14.666;2022-12-07T23:30:00;5.70;;;5.27;;
76733;SDS011;65660;53.288;14.666;2022-12-07T23:35:00;8.37;;;7.70;;
76733;SDS011;65660;53.288;14.666;2022-12-07T23:40:01;4.93;;;4.60;;
76733;SDS011;65660;53.288;14.666;2022-12-07T23:45:01;9.57;;;8.87;;
76733;SDS011;65660;53.288;14.666;2022-12-07T23:50:02;7.33;;;5.97;;
76733;SDS011;65660;53.288;14.666;2022-12-07T23:55:03;5.80;;;5.20;;
